Time;durP1;ratioP1;P1;durP2;ratioP2;P2;SDS_P1;SDS_P2;PMS_P1;PMS_P2;Temp;Humidity;BMP_temperature;BMP_pressure;BME280_temperature;BME280_humidity;BME280_pressure;Samples;Min_cycle;Max_cycle;Signal;HPM_P1;HPM_P2
2022/01/26 00:07:33;;;;;;;;;;;3.40;99.90;;;;;;5130679;27;19919;-68
2022/01/26 00:09:58;;;;;;;;;;;3.30;99.90;;;;;;5129887;27;19911;-67
2022/01/26 00:12:24;;;;;;;;;;;3.30;99.90;;;;;;5127864;27;19964;-67
2022/01/26 00:14:50;;;;;;;;;;;3.30;99.90;;;;;;5131158;27;20365;-68
2022/01/26 00:17:15;;;;;;;;;;;3.20;99.90;;;;;;5129965;27;20010;-68
2022/01/26 00:19:56;;;;;;;;;;;3.30;99.90;;;;;;5130962;27;20329;-70
2022/01/26 00:23:21;;;;;;;;;;;3.30;99.90;;;;;;5127190;27;20048;-69
2022/01/26 00:28:07;;;;;;;;;;;3.30;99.90;;;;;;5125363;27;20294;-68
2022/01/26 00:41:04;;;;;;;;;;;3.20;99.90;;;;;;5122662;28;19918;-68
2022/01/26 00:43:30;;;;;;;;;;;3.10;99.90;;;;;;5131053;28;19907;-68
2022/01/26 00:45:57;;;;;;;;;;;3.10;99.90;;;;;;5114238;28;19919;-69
2022/01/26 00:48:24;;;;;;;;;;;3.10;99.90;;;;;;5108988;28;19912;-68
2022/01/26 00:50:52;;;;;;;;;;;3.10;99.90;;;;;;5123504;28;19907;-68
2022/01/26 00:53:26;;;;;;;;;;;3.00;99.90;;;;;;5127043;28;19919;-68
2022/01/26 00:55:52;;;;;;;;;;;3.00;99.90;;;;;;5129282;28;19922;-68
2022/01/26 00:58:17;;;;;;;;;;;2.90;99.90;;;;;;5128926;28;19915;-69
2022/01/26 01:00:43;;;;;;;;;;;2.90;99.90;;;;;;5128133;28;20276;-68
2022/01/26 01:03:09;;;;;;;;;;;2.90;99.90;;;;;;5129200;28;19918;-68
2022/01/26 01:05:52;;;;;;;;;;;2.90;99.90;;;;;;5128449;27;19942;-68
2022/01/26 01:08:21;;;;;;;;;;;2.80;99.90;;;;;;5126459;28;19911;-68
2022/01/26 01:10:49;;;;;;;;;;;2.90;99.90;;;;;;5121976;28;19918;-69
2022/01/26 01:13:18;;;;;;;;;;;2.90;99.90;;;;;;5126512;27;20346;-69
2022/01/26 01:15:44;;;;;;;;;;;2.80;99.90;;;;;;5134625;27;19950;-69
2022/01/26 01:18:24;;;;;;;;;;;2.80;99.90;;;;;;5133370;27;20249;-69
2022/01/26 01:31:15;;;;;;;;;;;2.70;99.90;;;;;;5133324;27;19998;-69
2022/01/26 01:33:45;;;;;;;;;;;2.70;99.90;;;;;;5134422;27;19908;-69
2022/01/26 01:36:12;;;;;;;;;;;2.70;99.90;;;;;;5132006;27;20285;-70
2022/01/26 01:38:41;;;;;;;;;;;2.80;99.90;;;;;;5133032;27;19907;-68
2022/01/26 01:41:06;;;;;;;;;;;2.70;99.90;;;;;;5132673;27;19911;-68
2022/01/26 01:43:32;;;;;;;;;;;2.70;99.90;;;;;;5132806;27;20470;-68
2022/01/26 01:45:58;;;;;;;;;;;2.80;99.90;;;;;;5131709;27;20010;-68
2022/01/26 01:48:27;;;;;;;;;;;2.80;99.90;;;;;;5134145;27;20437;-68
2022/01/26 01:50:54;;;;;;;;;;;2.80;99.90;;;;;;5130796;27;19919;-67
2022/01/26 01:53:28;;;;;;;;;;;2.80;99.90;;;;;;5134209;27;19908;-69
2022/01/26 01:55:54;;;;;;;;;;;2.80;99.90;;;;;;5133105;27;19916;-68
2022/01/26 01:58:20;;;;;;;;;;;2.80;99.90;;;;;;5132437;27;19983;-68
2022/01/26 02:00:46;;;;;;;;;;;2.80;99.90;;;;;;5132429;27;19911;-67
2022/01/26 02:03:11;;;;;;;;;;;2.80;99.90;;;;;;5132470;27;19911;-68
2022/01/26 02:05:37;;;;;;;;;;;2.80;99.90;;;;;;5132602;27;20384;-68
2022/01/26 02:08:03;;;;;;;;;;;2.70;99.90;;;;;;5132276;27;19950;-68
2022/01/26 02:10:30;;;;;;;;;;;2.80;99.90;;;;;;5130077;27;20338;-67
2022/01/26 02:13:00;;;;;;;;;;;2.90;99.90;;;;;;5133492;27;20036;-68
2022/01/26 02:15:54;;;;;;;;;;;2.80;99.90;;;;;;5129493;27;19915;-68
2022/01/26 02:51:09;;;;;;;;;;;2.50;99.90;;;;;;5126513;27;19958;-68
2022/01/26 02:56:22;;;;;;;;;;;2.70;99.90;;;;;;5130471;27;19922;-68
2022/01/26 03:04:03;;;;;;;;;;;2.80;99.90;;;;;;5131703;27;19933;-68
2022/01/26 03:06:38;;;;;;;;;;;2.90;99.90;;;;;;5124442;27;20278;-68
2022/01/26 03:09:10;;;;;;;;;;;2.80;99.90;;;;;;5131213;27;19920;-67
2022/01/26 03:11:38;;;;;;;;;;;2.80;99.90;;;;;;5127711;27;19965;-68
2022/01/26 03:14:17;;;;;;;;;;;2.90;99.90;;;;;;5131201;27;20434;-68
2022/01/26 03:16:49;;;;;;;;;;;2.90;99.90;;;;;;5132694;27;19919;-69
2022/01/26 03:19:51;;;;;;;;;;;3.00;99.90;;;;;;5131325;27;19912;-68
2022/01/26 03:28:08;;;;;;;;;;;2.90;99.90;;;;;;5123923;27;19974;-69
2022/01/26 03:35:41;;;;;;;;;;;2.80;99.90;;;;;;5125693;27;20005;-68
2022/01/26 03:38:07;;;;;;;;;;;2.70;99.90;;;;;;5123739;27;19916;-68
2022/01/26 03:40:36;;;;;;;;;;;2.60;99.90;;;;;;5131652;27;19908;-68
2022/01/26 03:43:02;;;;;;;;;;;2.60;99.90;;;;;;5130920;27;20230;-68
2022/01/26 03:45:27;;;;;;;;;;;2.70;99.90;;;;;;5130413;27;19975;-69
2022/01/26 03:47:56;;;;;;;;;;;2.80;99.90;;;;;;5130063;27;19907;-68
2022/01/26 03:50:22;;;;;;;;;;;2.90;99.90;;;;;;5130445;27;19915;-67
2022/01/26 03:52:48;;;;;;;;;;;2.80;99.90;;;;;;5127449;27;19907;-68
2022/01/26 03:55:13;;;;;;;;;;;2.80;99.90;;;;;;5129645;27;19931;-68
2022/01/26 03:57:39;;;;;;;;;;;2.90;99.90;;;;;;5129604;27;20436;-69
2022/01/26 04:00:07;;;;;;;;;;;2.90;99.90;;;;;;5127334;27;19919;-69
2022/01/26 04:02:33;;;;;;;;;;;2.90;99.90;;;;;;5131471;27;19921;-69
2022/01/26 04:05:01;;;;;;;;;;;2.90;99.90;;;;;;5130273;27;19925;-69
2022/01/26 04:07:27;;;;;;;;;;;2.90;99.90;;;;;;5122332;27;20373;-68
2022/01/26 04:10:00;;;;;;;;;;;2.90;99.90;;;;;;5131329;27;19914;-68
2022/01/26 04:12:25;;;;;;;;;;;2.90;99.90;;;;;;5119716;27;19920;-68
2022/01/26 04:14:57;;;;;;;;;;;2.90;99.90;;;;;;5122881;27;19922;-68
2022/01/26 04:17:22;;;;;;;;;;;3.00;99.90;;;;;;5131364;27;19953;-69
2022/01/26 04:19:54;;;;;;;;;;;2.90;99.90;;;;;;5129014;27;20405;-68
2022/01/26 04:22:27;;;;;;;;;;;2.80;99.90;;;;;;5128876;27;20252;-69
2022/01/26 04:24:54;;;;;;;;;;;2.80;99.90;;;;;;5131465;27;19914;-69
2022/01/26 04:27:36;;;;;;;;;;;2.80;99.90;;;;;;5130300;27;19951;-68
2022/01/26 04:30:01;;;;;;;;;;;2.80;99.90;;;;;;5129793;27;19966;-68
2022/01/26 04:32:27;;;;;;;;;;;2.80;99.90;;;;;;5124381;27;19950;-69
2022/01/26 04:34:53;;;;;;;;;;;2.70;99.90;;;;;;5121561;27;20282;-68
2022/01/26 04:40:22;;;;;;;;;;;2.80;99.90;;;;;;5107140;28;19908;-69
2022/01/26 04:42:59;;;;;;;;;;;2.90;99.90;;;;;;5107723;28;20015;-69
2022/01/26 04:45:24;;;;;;;;;;;2.90;99.90;;;;;;5110409;28;19916;-70
2022/01/26 04:47:50;;;;;;;;;;;2.90;99.90;;;;;;5127607;27;20238;-69
2022/01/26 04:50:15;;;;;;;;;;;3.00;99.90;;;;;;5133835;27;19908;-69
2022/01/26 04:52:45;;;;;;;;;;;3.00;99.90;;;;;;5135352;27;20480;-69
2022/01/26 04:55:11;;;;;;;;;;;3.00;99.90;;;;;;5134435;27;20010;-67
2022/01/26 04:57:36;;;;;;;;;;;3.00;99.90;;;;;;5135108;27;19916;-69
2022/01/26 05:00:03;;;;;;;;;;;3.00;99.90;;;;;;5134726;27;19907;-69
2022/01/26 05:02:28;;;;;;;;;;;2.90;99.90;;;;;;5127937;27;19912;-68
2022/01/26 05:04:54;;;;;;;;;;;2.80;99.90;;;;;;5133323;27;19960;-69
2022/01/26 05:07:19;;;;;;;;;;;2.80;99.90;;;;;;5131781;27;19934;-68
2022/01/26 05:09:45;;;;;;;;;;;2.80;99.90;;;;;;5135268;27;20000;-68
2022/01/26 05:12:12;;;;;;;;;;;2.70;99.90;;;;;;5133894;27;19911;-69
2022/01/26 05:14:40;;;;;;;;;;;2.70;99.90;;;;;;5135233;27;19911;-68
2022/01/26 05:17:06;;;;;;;;;;;2.80;99.90;;;;;;5126190;27;19915;-68
2022/01/26 05:19:32;;;;;;;;;;;2.70;99.90;;;;;;5134941;27;20344;-67
2022/01/26 05:21:58;;;;;;;;;;;2.70;99.90;;;;;;5125993;27;19919;-68
2022/01/26 05:24:24;;;;;;;;;;;2.70;99.90;;;;;;5124428;27;20372;-68
2022/01/26 05:26:49;;;;;;;;;;;2.70;99.90;;;;;;5133160;27;19918;-69
2022/01/26 05:29:15;;;;;;;;;;;2.70;99.90;;;;;;5127716;27;20358;-69
2022/01/26 05:31:41;;;;;;;;;;;2.70;99.90;;;;;;5134270;27;19915;-69
2022/01/26 05:34:09;;;;;;;;;;;2.70;99.90;;;;;;5126656;27;20010;-68
2022/01/26 05:36:35;;;;;;;;;;;2.60;99.90;;;;;;5128933;27;19916;-67
2022/01/26 05:39:01;;;;;;;;;;;2.60;99.90;;;;;;5132400;27;19957;-69
2022/01/26 05:41:27;;;;;;;;;;;2.60;99.90;;;;;;5132577;27;19916;-69
2022/01/26 05:43:52;;;;;;;;;;;2.60;99.90;;;;;;5134341;27;20388;-67
2022/01/26 05:46:29;;;;;;;;;;;2.50;99.90;;;;;;5130995;27;20276;-70
2022/01/26 05:48:56;;;;;;;;;;;2.50;99.90;;;;;;5129903;27;19968;-68
2022/01/26 05:51:22;;;;;;;;;;;2.50;99.90;;;;;;5130208;27;19960;-68
2022/01/26 05:53:47;;;;;;;;;;;2.50;99.90;;;;;;5135009;27;20539;-70
2022/01/26 05:56:13;;;;;;;;;;;2.50;99.90;;;;;;5133230;27;19923;-68
2022/01/26 05:58:39;;;;;;;;;;;2.40;99.90;;;;;;5132267;27;19907;-69
2022/01/26 06:01:05;;;;;;;;;;;2.30;99.90;;;;;;5130127;27;19920;-68
2022/01/26 06:03:30;;;;;;;;;;;2.50;99.90;;;;;;5133955;27;19915;-69
2022/01/26 06:05:56;;;;;;;;;;;2.70;99.90;;;;;;5130447;27;19915;-68
2022/01/26 06:08:22;;;;;;;;;;;2.80;99.90;;;;;;5132553;27;19911;-69
2022/01/26 06:10:51;;;;;;;;;;;2.80;99.90;;;;;;5125825;27;20461;-70
2022/01/26 06:13:17;;;;;;;;;;;2.80;99.90;;;;;;5132383;27;19939;-69
2022/01/26 06:15:43;;;;;;;;;;;2.80;99.90;;;;;;5131610;27;20078;-70
2022/01/26 06:18:09;;;;;;;;;;;2.80;99.90;;;;;;5125631;27;19919;-69
2022/01/26 06:20:35;;;;;;;;;;;2.60;99.90;;;;;;5127593;27;20014;-68
2022/01/26 06:23:02;;;;;;;;;;;2.60;99.90;;;;;;5133627;27;19907;-69
2022/01/26 06:25:28;;;;;;;;;;;2.60;99.90;;;;;;5132626;27;19918;-68
2022/01/26 06:27:55;;;;;;;;;;;2.70;99.90;;;;;;5125687;27;19998;-69
2022/01/26 06:30:22;;;;;;;;;;;2.70;99.90;;;;;;5132011;27;19912;-70
2022/01/26 06:32:48;;;;;;;;;;;2.90;99.90;;;;;;5123983;27;19957;-69
2022/01/26 06:35:13;;;;;;;;;;;3.00;99.90;;;;;;5130808;27;19942;-69
2022/01/26 06:37:39;;;;;;;;;;;3.00;99.90;;;;;;5131607;27;19930;-70
2022/01/26 06:40:05;;;;;;;;;;;3.10;99.90;;;;;;5131982;27;19918;-69
2022/01/26 06:42:37;;;;;;;;;;;3.20;99.90;;;;;;5128943;27;20403;-69
2022/01/26 06:49:54;;;;;;;;;;;3.20;99.90;;;;;;5131944;27;20084;-68
2022/01/26 06:52:20;;;;;;;;;;;3.20;99.90;;;;;;5131866;27;19927;-69
2022/01/26 06:54:46;;;;;;;;;;;3.30;99.90;;;;;;5128566;27;20374;-71
2022/01/26 06:57:11;;;;;;;;;;;3.30;99.90;;;;;;5128274;27;20327;-69
2022/01/26 06:59:37;;;;;;;;;;;3.30;99.90;;;;;;5133254;27;19907;-69
2022/01/26 07:02:03;;;;;;;;;;;3.40;99.90;;;;;;5131646;27;20019;-69
2022/01/26 07:04:28;;;;;;;;;;;3.40;99.90;;;;;;5131455;27;19987;-69
2022/01/26 07:06:54;;;;;;;;;;;3.30;99.90;;;;;;5127266;27;20390;-69
2022/01/26 07:09:20;;;;;;;;;;;3.40;99.90;;;;;;5130670;27;19929;-69
2022/01/26 07:11:46;;;;;;;;;;;3.40;99.90;;;;;;5132064;27;20257;-69
2022/01/26 07:14:21;;;;;;;;;;;3.40;99.90;;;;;;5130636;27;19916;-69
2022/01/26 07:19:55;;;;;;;;;;;3.60;99.90;;;;;;5124611;27;19977;-69
2022/01/26 07:22:21;;;;;;;;;;;3.70;99.90;;;;;;5127289;27;19934;-69
2022/01/26 07:24:46;;;;;;;;;;;3.80;99.90;;;;;;5119548;27;19920;-70
2022/01/26 07:27:12;;;;;;;;;;;4.00;99.90;;;;;;5125363;27;19919;-69
2022/01/26 07:29:38;;;;;;;;;;;3.90;99.90;;;;;;5130794;27;19907;-70
2022/01/26 07:32:06;;;;;;;;;;;4.00;99.90;;;;;;5131747;27;19914;-71
2022/01/26 07:34:31;;;;;;;;;;;4.10;99.90;;;;;;5134302;27;20499;-70
2022/01/26 07:37:02;;;;;;;;;;;4.20;99.90;;;;;;5124783;27;20011;-69
2022/01/26 07:39:33;;;;;;;;;;;4.20;99.90;;;;;;5123868;27;19911;-69
2022/01/26 07:42:00;;;;;;;;;;;4.20;99.90;;;;;;5130866;27;19956;-68
2022/01/26 07:44:25;;;;;;;;;;;4.20;99.90;;;;;;5132258;27;19955;-69
2022/01/26 07:46:51;;;;;;;;;;;4.30;99.90;;;;;;5131163;27;20071;-70
2022/01/26 07:49:16;;;;;;;;;;;4.30;99.90;;;;;;5132300;27;19915;-70
2022/01/26 07:51:42;;;;;;;;;;;4.40;99.90;;;;;;5127756;27;19919;-70
2022/01/26 07:54:08;;;;;;;;;;;4.40;99.90;;;;;;5126533;27;19911;-69
2022/01/26 07:56:34;;;;;;;;;;;4.40;99.90;;;;;;5125481;27;20013;-69
2022/01/26 07:58:59;;;;;;;;;;;4.50;99.90;;;;;;5127966;27;19950;-68
2022/01/26 08:01:25;;;;;;;;;;;4.70;99.90;;;;;;5132145;27;19911;-69
2022/01/26 08:03:50;;;;;;;;;;;4.70;99.90;;;;;;5131349;27;19994;-69
2022/01/26 08:06:18;;;;;;;;;;;4.70;99.90;;;;;;5127764;27;19951;-69
2022/01/26 08:08:43;;;;;;;;;;;4.70;99.90;;;;;;5124710;27;19911;-70
2022/01/26 08:11:09;;;;;;;;;;;4.80;99.90;;;;;;5129472;27;19907;-69
2022/01/26 08:13:35;;;;;;;;;;;4.80;99.90;;;;;;5124248;27;19911;-68
2022/01/26 08:16:01;;;;;;;;;;;4.80;99.90;;;;;;5131593;27;19965;-69
2022/01/26 08:18:26;;;;;;;;;;;4.90;99.90;;;;;;5131308;27;19915;-69
2022/01/26 08:20:52;;;;;;;;;;;4.90;99.90;;;;;;5130038;27;20018;-68
2022/01/26 08:23:20;;;;;;;;;;;4.90;99.90;;;;;;5125593;27;20431;-70
2022/01/26 08:25:45;;;;;;;;;;;4.90;99.90;;;;;;5131409;27;19912;-69
2022/01/26 08:28:20;;;;;;;;;;;5.00;99.90;;;;;;5127526;27;20043;-70
2022/01/26 08:30:45;;;;;;;;;;;5.10;99.90;;;;;;5123772;27;19918;-67
2022/01/26 08:33:11;;;;;;;;;;;5.10;99.90;;;;;;5132081;27;19911;-69
2022/01/26 08:35:37;;;;;;;;;;;5.10;99.90;;;;;;5130472;27;19985;-70
2022/01/26 08:38:03;;;;;;;;;;;5.10;99.90;;;;;;5126540;28;19998;-68
2022/01/26 08:40:30;;;;;;;;;;;5.20;99.90;;;;;;5131439;27;19961;-68
2022/01/26 08:42:55;;;;;;;;;;;5.30;99.90;;;;;;5130496;27;19907;-69
2022/01/26 08:45:21;;;;;;;;;;;5.40;99.90;;;;;;5129330;27;19959;-68
2022/01/26 08:47:47;;;;;;;;;;;5.40;99.90;;;;;;5125711;28;19975;-71
2022/01/26 08:50:13;;;;;;;;;;;5.50;99.90;;;;;;5129447;28;19912;-69
2022/01/26 08:52:39;;;;;;;;;;;5.60;99.90;;;;;;5124131;28;20487;-69
2022/01/26 08:55:05;;;;;;;;;;;5.60;99.90;;;;;;5131863;28;19908;-68
2022/01/26 08:57:31;;;;;;;;;;;5.70;99.90;;;;;;5131950;28;19936;-69
2022/01/26 08:59:58;;;;;;;;;;;5.70;99.90;;;;;;5130535;27;19912;-69
2022/01/26 09:02:24;;;;;;;;;;;5.80;99.90;;;;;;5127764;28;19908;-69
2022/01/26 09:04:50;;;;;;;;;;;5.80;99.90;;;;;;5130664;27;19964;-68
2022/01/26 09:07:16;;;;;;;;;;;5.90;99.90;;;;;;5124038;28;19911;-69
2022/01/26 09:09:44;;;;;;;;;;;5.90;99.90;;;;;;5134809;28;20312;-70
2022/01/26 09:12:14;;;;;;;;;;;5.90;99.90;;;;;;5129959;28;19918;-69
2022/01/26 09:14:40;;;;;;;;;;;5.90;99.90;;;;;;5130792;27;19937;-69
2022/01/26 09:17:07;;;;;;;;;;;6.00;99.90;;;;;;5119613;28;20018;-68
2022/01/26 09:19:33;;;;;;;;;;;6.20;99.90;;;;;;5130435;28;19907;-69
2022/01/26 09:22:04;;;;;;;;;;;6.30;99.90;;;;;;5129511;28;20006;-69
2022/01/26 09:24:30;;;;;;;;;;;6.40;99.90;;;;;;5122770;28;19918;-69
2022/01/26 09:26:56;;;;;;;;;;;6.40;99.90;;;;;;5111101;28;19911;-70
2022/01/26 09:29:22;;;;;;;;;;;6.50;99.90;;;;;;5128445;28;20399;-69
2022/01/26 09:31:47;;;;;;;;;;;6.60;99.90;;;;;;5123024;28;19927;-69
2022/01/26 09:34:17;;;;;;;;;;;6.70;99.90;;;;;;5128948;27;19992;-70
2022/01/26 09:36:43;;;;;;;;;;;6.80;99.90;;;;;;5133409;27;20019;-69
2022/01/26 09:39:09;;;;;;;;;;;6.90;99.90;;;;;;5134283;27;20357;-70
2022/01/26 09:41:34;;;;;;;;;;;7.20;99.90;;;;;;5132667;27;20085;-70
2022/01/26 09:44:02;;;;;;;;;;;7.20;99.90;;;;;;5134652;27;19931;-69
2022/01/26 09:46:29;;;;;;;;;;;7.10;99.90;;;;;;5129355;27;19953;-69
2022/01/26 09:48:55;;;;;;;;;;;7.30;99.90;;;;;;5134233;27;20600;-69
2022/01/26 09:51:21;;;;;;;;;;;7.40;99.90;;;;;;5124877;27;19922;-69
2022/01/26 09:53:58;;;;;;;;;;;7.40;99.90;;;;;;5113796;28;19915;-69
2022/01/26 09:56:23;;;;;;;;;;;7.50;99.90;;;;;;5118341;27;20038;-68
2022/01/26 09:58:50;;;;;;;;;;;7.50;99.90;;;;;;5132256;27;20400;-68
2022/01/26 10:01:16;;;;;;;;;;;7.60;99.90;;;;;;5131443;27;20250;-70
2022/01/26 10:03:43;;;;;;;;;;;7.80;99.90;;;;;;5134738;27;19979;-70
2022/01/26 10:06:18;;;;;;;;;;;7.80;99.90;;;;;;5133617;27;19919;-72
2022/01/26 10:18:59;;;;;;;;;;;8.50;99.90;;;;;;5133988;27;20285;-69
2022/01/26 10:21:25;;;;;;;;;;;8.60;99.90;;;;;;5132853;27;19915;-69
2022/01/26 10:23:57;;;;;;;;;;;8.70;99.90;;;;;;5132525;27;19998;-69
2022/01/26 10:26:22;;;;;;;;;;;8.50;99.90;;;;;;5125147;27;19998;-69
2022/01/26 10:28:52;;;;;;;;;;;8.40;99.90;;;;;;5132268;27;19994;-69
2022/01/26 10:31:19;;;;;;;;;;;8.40;99.90;;;;;;5132108;27;19914;-69
2022/01/26 10:34:14;;;;;;;;;;;8.40;99.90;;;;;;5131911;27;20360;-68
2022/01/26 10:36:45;;;;;;;;;;;8.50;99.90;;;;;;5114384;27;19911;-68
2022/01/26 10:39:27;;;;;;;;;;;8.50;99.90;;;;;;5130606;27;20266;-69
2022/01/26 10:41:55;;;;;;;;;;;8.60;99.90;;;;;;5131613;27;20309;-69
2022/01/26 10:44:34;;;;;;;;;;;8.60;99.90;;;;;;5131297;27;19919;-70
2022/01/26 10:47:03;;;;;;;;;;;8.60;99.90;;;;;;5130844;27;19939;-68
2022/01/26 10:49:54;;;;;;;;;;;8.40;99.90;;;;;;5124872;27;20292;-68
2022/01/26 10:52:34;;;;;;;;;;;8.50;99.90;;;;;;5124009;27;19907;-69
2022/01/26 10:55:00;;;;;;;;;;;8.60;99.90;;;;;;5132563;27;20362;-69
2022/01/26 10:57:26;;;;;;;;;;;8.70;99.90;;;;;;5122743;27;19968;-69
2022/01/26 10:59:52;;;;;;;;;;;8.50;99.90;;;;;;5131160;27;20476;-69
2022/01/26 11:02:24;;;;;;;;;;;8.20;99.90;;;;;;5121039;27;20019;-69
2022/01/26 11:04:49;;;;;;;;;;;7.90;99.90;;;;;;5112095;28;20334;-69
2022/01/26 11:07:16;;;;;;;;;;;7.70;99.90;;;;;;5114590;27;19912;-69
2022/01/26 11:09:44;;;;;;;;;;;7.70;99.90;;;;;;5122430;27;19916;-69
2022/01/26 11:12:11;;;;;;;;;;;7.60;99.90;;;;;;5126449;27;20013;-70
2022/01/26 11:14:38;;;;;;;;;;;7.70;99.90;;;;;;5132875;27;19907;-70
2022/01/26 11:17:03;;;;;;;;;;;7.60;99.90;;;;;;5124072;27;19915;-69
2022/01/26 11:19:38;;;;;;;;;;;7.60;99.90;;;;;;5132137;27;19914;-68
2022/01/26 11:22:08;;;;;;;;;;;7.50;99.90;;;;;;5122615;27;20003;-69
2022/01/26 11:24:41;;;;;;;;;;;7.50;99.90;;;;;;5130976;27;19946;-68
2022/01/26 11:27:07;;;;;;;;;;;7.40;99.90;;;;;;5119318;27;19916;-70
2022/01/26 11:29:35;;;;;;;;;;;7.40;99.90;;;;;;5131391;27;19912;-69
2022/01/26 11:32:02;;;;;;;;;;;7.40;99.90;;;;;;5132681;27;20003;-70
2022/01/26 11:34:29;;;;;;;;;;;7.40;99.90;;;;;;5131427;27;19922;-70
2022/01/26 11:36:57;;;;;;;;;;;7.40;99.90;;;;;;5132349;27;19911;-69
2022/01/26 11:45:05;;;;;;;;;;;7.30;99.90;;;;;;5127841;27;19922;-68
2022/01/26 11:45:20;;;;;;;;;;;7.30;99.90;;;;;;5127658;27;19914;-69
2022/01/26 11:47:58;;;;;;;;;;;7.40;99.90;;;;;;5124811;27;19911;-68
2022/01/26 11:50:25;;;;;;;;;;;7.30;99.90;;;;;;5128248;27;20361;-69
2022/01/26 11:52:59;;;;;;;;;;;7.30;99.90;;;;;;5121502;27;19998;-69
2022/01/26 11:55:36;;;;;;;;;;;7.30;99.90;;;;;;5131523;27;19908;-69
2022/01/26 11:58:08;;;;;;;;;;;7.30;99.90;;;;;;5126780;27;20376;-70
2022/01/26 12:03:34;;;;;;;;;;;7.40;99.90;;;;;;5123435;27;19911;-70
2022/01/26 12:06:01;;;;;;;;;;;7.40;99.90;;;;;;5124626;27;19920;-68
2022/01/26 12:08:37;;;;;;;;;;;7.50;99.90;;;;;;5128992;27;20038;-69
2022/01/26 12:11:05;;;;;;;;;;;7.50;99.90;;;;;;5126192;27;20017;-70
2022/01/26 12:13:32;;;;;;;;;;;7.50;99.90;;;;;;5125794;27;19926;-68
2022/01/26 12:16:07;;;;;;;;;;;7.60;99.90;;;;;;5129337;27;20357;-68
2022/01/26 12:38:04;;;;;;;;;;;7.70;99.90;;;;;;5117742;27;19923;-69
2022/01/26 12:43:37;;;;;;;;;;;7.50;99.90;;;;;;5117598;27;19935;-69
2022/01/26 12:46:13;;;;;;;;;;;7.60;99.90;;;;;;5120297;28;19908;-68
2022/01/26 12:48:40;;;;;;;;;;;7.60;99.90;;;;;;5118085;28;19960;-69
2022/01/26 12:51:06;;;;;;;;;;;7.80;99.90;;;;;;5118927;28;19998;-70
2022/01/26 12:53:35;;;;;;;;;;;7.70;99.90;;;;;;5118728;28;19972;-68
2022/01/26 12:56:02;;;;;;;;;;;7.70;99.90;;;;;;5129694;28;20015;-69
2022/01/26 12:58:29;;;;;;;;;;;7.70;99.90;;;;;;5117613;28;19916;-69
2022/01/26 13:01:06;;;;;;;;;;;7.70;99.90;;;;;;5116056;28;20327;-69
2022/01/26 13:03:33;;;;;;;;;;;7.70;99.90;;;;;;5117493;28;19951;-69
2022/01/26 13:06:06;;;;;;;;;;;7.60;99.90;;;;;;5123304;28;20058;-69
2022/01/26 13:08:46;;;;;;;;;;;7.60;99.90;;;;;;5124929;27;19918;-69
2022/01/26 13:11:12;;;;;;;;;;;7.70;99.90;;;;;;5130206;27;19924;-70
2022/01/26 13:13:37;;;;;;;;;;;7.70;99.90;;;;;;5134983;27;19907;-70
2022/01/26 13:16:16;;;;;;;;;;;7.80;99.90;;;;;;5125071;27;19932;-69
2022/01/26 13:24:26;;;;;;;;;;;7.90;99.90;;;;;;5135620;27;19907;-69
2022/01/26 13:27:01;;;;;;;;;;;7.90;99.90;;;;;;5121838;27;19915;-70
2022/01/26 13:29:50;;;;;;;;;;;8.00;99.90;;;;;;5128607;27;19950;-70
2022/01/26 13:37:20;;;;;;;;;;;7.90;99.90;;;;;;5124527;27;20642;-70
2022/01/26 13:53:12;;;;;;;;;;;7.90;99.90;;;;;;5128128;27;20007;-68
2022/01/26 13:58:18;;;;;;;;;;;7.90;99.90;;;;;;5129028;27;19950;-71
2022/01/26 14:00:53;;;;;;;;;;;7.90;99.90;;;;;;5125571;27;19935;-69
2022/01/26 14:03:21;;;;;;;;;;;7.80;99.90;;;;;;5122875;27;19912;-67
2022/01/26 14:05:47;;;;;;;;;;;7.90;99.90;;;;;;5135008;27;19919;-69
2022/01/26 14:08:12;;;;;;;;;;;7.90;99.90;;;;;;5127342;27;19980;-70
2022/01/26 14:10:38;;;;;;;;;;;7.80;99.90;;;;;;5134103;27;19908;-71
2022/01/26 14:13:04;;;;;;;;;;;7.60;99.90;;;;;;5131782;27;19911;-69
2022/01/26 14:15:43;;;;;;;;;;;7.70;99.90;;;;;;5133042;27;20067;-70
2022/01/26 14:20:51;;;;;;;;;;;7.90;99.90;;;;;;5134248;27;19908;-68
2022/01/26 14:25:56;;;;;;;;;;;7.90;99.90;;;;;;5126353;27;19912;-70
2022/01/26 14:28:29;;;;;;;;;;;7.90;99.90;;;;;;5125815;27;19915;-69
2022/01/26 14:31:20;;;;;;;;;;;7.80;99.90;;;;;;5130354;27;20006;-69
2022/01/26 14:33:56;;;;;;;;;;;7.70;99.90;;;;;;5127538;27;20409;-69
2022/01/26 14:55:30;;;;;;;;;;;7.60;99.90;;;;;;5133973;27;19968;-70
2022/01/26 15:08:55;;;;;;;;;;;7.50;99.90;;;;;;5131896;27;19927;-70
2022/01/26 15:20:23;;;;;;;;;;;7.30;99.90;;;;;;5133705;27;20409;-69
2022/01/26 15:43:51;;;;;;;;;;;7.10;99.90;;;;;;5130792;27;19914;-69
2022/01/26 16:21:17;;;;;;;;;;;6.80;99.90;;;;;;5130275;27;20257;-70
2022/01/26 18:18:02;;;;;;;;;;;5.90;99.90;;;;;;5123792;27;20297;-69
2022/01/26 18:26:29;;;;;;;;;;;5.70;99.90;;;;;;5127397;27;19933;-70
2022/01/26 18:49:30;;;;;;;;;;;5.20;99.90;;;;;;5131026;27;20014;-68
2022/01/26 18:51:58;;;;;;;;;;;5.20;99.90;;;;;;5131706;27;20383;-70
2022/01/26 18:54:25;;;;;;;;;;;5.20;99.90;;;;;;5127511;27;19918;-70
2022/01/26 18:56:51;;;;;;;;;;;5.20;99.90;;;;;;5132526;27;19922;-70
2022/01/26 18:59:17;;;;;;;;;;;5.20;99.90;;;;;;5133215;27;20009;-69
2022/01/26 19:01:43;;;;;;;;;;;5.20;99.90;;;;;;5130155;27;20289;-69
2022/01/26 19:04:09;;;;;;;;;;;5.20;99.90;;;;;;5132565;27;19915;-70
2022/01/26 19:06:38;;;;;;;;;;;5.10;99.90;;;;;;5129209;27;20475;-70
2022/01/26 19:09:04;;;;;;;;;;;5.00;99.90;;;;;;5129948;27;19912;-69
2022/01/26 19:11:30;;;;;;;;;;;5.00;99.90;;;;;;5133701;27;19930;-69
2022/01/26 19:13:55;;;;;;;;;;;5.10;99.90;;;;;;5127411;27;19994;-70
2022/01/26 19:21:27;;;;;;;;;;;5.00;99.90;;;;;;5132315;27;19952;-70
2022/01/26 19:24:19;;;;;;;;;;;4.90;99.90;;;;;;5133060;27;19999;-69
2022/01/26 19:26:50;;;;;;;;;;;4.90;99.90;;;;;;5130042;27;19959;-70
2022/01/26 19:29:31;;;;;;;;;;;4.90;99.90;;;;;;5129515;27;20285;-69
2022/01/26 19:50:49;;;;;;;;;;;4.70;99.90;;;;;;5127981;27;19912;-70
2022/01/26 19:53:15;;;;;;;;;;;4.60;99.90;;;;;;5131444;27;19922;-67
2022/01/26 19:55:41;;;;;;;;;;;4.70;99.90;;;;;;5129400;27;19911;-71
2022/01/26 19:58:08;;;;;;;;;;;4.80;99.90;;;;;;5129593;27;20595;-71
2022/01/26 20:00:46;;;;;;;;;;;4.80;99.90;;;;;;5130885;27;19994;-67
2022/01/26 20:03:16;;;;;;;;;;;4.70;99.90;;;;;;5133315;27;20552;-71
2022/01/26 20:05:42;;;;;;;;;;;4.80;99.90;;;;;;5130563;27;19919;-70
2022/01/26 20:10:57;;;;;;;;;;;4.80;99.90;;;;;;5132693;27;19919;-69
2022/01/26 20:13:29;;;;;;;;;;;4.90;99.90;;;;;;5117224;27;20001;-70
2022/01/26 20:15:55;;;;;;;;;;;4.70;99.90;;;;;;5127260;27;20010;-70
2022/01/26 20:18:21;;;;;;;;;;;4.80;99.90;;;;;;5132129;27;19909;-68
2022/01/26 20:20:50;;;;;;;;;;;4.80;99.90;;;;;;5131531;27;19922;-68
2022/01/26 20:23:17;;;;;;;;;;;4.80;99.90;;;;;;5130544;27;19911;-69
2022/01/26 20:25:44;;;;;;;;;;;4.80;99.90;;;;;;5131753;27;19911;-69
2022/01/26 20:28:11;;;;;;;;;;;4.90;99.90;;;;;;5122848;27;19918;-67
2022/01/26 20:30:42;;;;;;;;;;;4.60;99.90;;;;;;5131498;27;19907;-68
2022/01/26 20:33:08;;;;;;;;;;;4.40;99.90;;;;;;5129659;27;19911;-70
2022/01/26 20:35:33;;;;;;;;;;;4.20;99.90;;;;;;5127270;27;20011;-67
2022/01/26 20:37:59;;;;;;;;;;;4.20;99.90;;;;;;5128297;27;19961;-68
2022/01/26 20:40:25;;;;;;;;;;;4.20;99.90;;;;;;5123910;27;19919;-70
2022/01/26 20:42:50;;;;;;;;;;;4.20;99.90;;;;;;5128347;27;19908;-69
2022/01/26 20:45:23;;;;;;;;;;;4.10;99.90;;;;;;5128966;27;19907;-70
2022/01/26 20:47:50;;;;;;;;;;;4.10;99.90;;;;;;5127589;28;19965;-70
2022/01/26 20:50:16;;;;;;;;;;;3.90;99.90;;;;;;5128620;27;19907;-67
2022/01/26 20:52:42;;;;;;;;;;;3.80;99.90;;;;;;5129185;27;19923;-67
2022/01/26 20:55:08;;;;;;;;;;;3.70;99.90;;;;;;5131239;27;19907;-70
2022/01/26 20:57:34;;;;;;;;;;;3.70;99.90;;;;;;5124169;28;20555;-69
2022/01/26 21:00:00;;;;;;;;;;;3.70;99.90;;;;;;5127068;28;19911;-70
2022/01/26 21:02:25;;;;;;;;;;;3.60;99.90;;;;;;5130477;28;19908;-71
2022/01/26 21:04:51;;;;;;;;;;;3.50;99.90;;;;;;5130563;28;19922;-69
2022/01/26 21:07:17;;;;;;;;;;;3.50;99.90;;;;;;5131747;28;20240;-71
2022/01/26 21:09:43;;;;;;;;;;;3.50;99.90;;;;;;5130923;28;19916;-69
2022/01/26 21:12:08;;;;;;;;;;;3.40;99.90;;;;;;5123362;28;20443;-68
2022/01/26 21:14:34;;;;;;;;;;;3.40;99.90;;;;;;5130275;27;20006;-70
2022/01/26 21:17:02;;;;;;;;;;;3.60;99.90;;;;;;5131021;27;19911;-70
2022/01/26 21:19:31;;;;;;;;;;;3.70;99.90;;;;;;5130304;28;19980;-68
2022/01/26 21:21:57;;;;;;;;;;;3.70;99.90;;;;;;5126004;28;20433;-69
2022/01/26 21:24:23;;;;;;;;;;;3.70;99.90;;;;;;5130024;28;20345;-69
2022/01/26 21:26:49;;;;;;;;;;;3.60;99.90;;;;;;5119319;28;19912;-71
2022/01/26 21:29:14;;;;;;;;;;;3.50;99.90;;;;;;5131866;27;19907;-70
2022/01/26 21:31:40;;;;;;;;;;;3.50;99.90;;;;;;5124187;27;19911;-70
2022/01/26 21:34:05;;;;;;;;;;;3.50;99.90;;;;;;5135204;27;20293;-68
2022/01/26 21:36:31;;;;;;;;;;;3.50;99.90;;;;;;5131048;27;19919;-71
2022/01/26 21:38:57;;;;;;;;;;;3.50;99.90;;;;;;5129492;27;19958;-70
2022/01/26 21:41:23;;;;;;;;;;;3.60;99.90;;;;;;5134228;27;19908;-68
2022/01/26 21:43:49;;;;;;;;;;;3.60;99.90;;;;;;5133716;27;19908;-69